Map

Track Data

SID SEASON NUMBER BASIN SUBBASIN NAME ISO_TIME NATURE LAT LON WMO_WIND WMO_PRES WMO_AGENCY TRACK_TYPE DIST2LAND LANDFALL IFLAG USA_AGENCY USA_ATCF_ID USA_LAT USA_LON USA_RECORD USA_STATUS USA_WIND USA_PRES USA_SSHS USA_R34_NE USA_R34_SE USA_R34_SW USA_R34_NW USA_R50_NE USA_R50_SE USA_R50_SW USA_R50_NW USA_R64_NE USA_R64_SE USA_R64_SW USA_R64_NW USA_POCI USA_ROCI USA_RMW USA_EYE TOKYO_LAT TOKYO_LON TOKYO_GRADE TOKYO_WIND TOKYO_PRES TOKYO_R50_DIR TOKYO_R50_LONG TOKYO_R50_SHORT TOKYO_R30_DIR TOKYO_R30_LONG TOKYO_R30_SHORT TOKYO_LAND CMA_LAT CMA_LON CMA_CAT CMA_WIND CMA_PRES HKO_LAT HKO_LON HKO_CAT HKO_WIND HKO_PRES NEWDELHI_LAT NEWDELHI_LON NEWDELHI_GRADE NEWDELHI_WIND NEWDELHI_PRES NEWDELHI_CI NEWDELHI_DP NEWDELHI_POCI REUNION_LAT REUNION_LON REUNION_TYPE REUNION_WIND REUNION_PRES REUNION_TNUM REUNION_CI REUNION_RMW REUNION_R34_NE REUNION_R34_SE REUNION_R34_SW REUNION_R34_NW REUNION_R50_NE REUNION_R50_SE REUNION_R50_SW REUNION_R50_NW REUNION_R64_NE REUNION_R64_SE REUNION_R64_SW REUNION_R64_NW BOM_LAT BOM_LON BOM_TYPE BOM_WIND BOM_PRES BOM_TNUM BOM_CI BOM_RMW BOM_R34_NE BOM_R34_SE BOM_R34_SW BOM_R34_NW BOM_R50_NE BOM_R50_SE BOM_R50_SW BOM_R50_NW BOM_R64_NE BOM_R64_SE BOM_R64_SW BOM_R64_NW BOM_ROCI BOM_POCI BOM_EYE BOM_POS_METHOD BOM_PRES_METHOD NADI_LAT NADI_LON NADI_CAT NADI_WIND NADI_PRES WELLINGTON_LAT WELLINGTON_LON WELLINGTON_WIND WELLINGTON_PRES DS824_LAT DS824_LON DS824_STAGE DS824_WIND DS824_PRES TD9636_LAT TD9636_LON TD9636_STAGE TD9636_WIND TD9636_PRES TD9635_LAT TD9635_LON TD9635_WIND TD9635_PRES TD9635_ROCI NEUMANN_LAT NEUMANN_LON NEUMANN_CLASS NEUMANN_WIND NEUMANN_PRES MLC_LAT MLC_LON MLC_CLASS MLC_WIND MLC_PRES USA_GUST BOM_GUST BOM_GUST_PER REUNION_GUST REUNION_GUST_PER USA_SEAHGT USA_SEARAD_NE USA_SEARAD_SE USA_SEARAD_SW USA_SEARAD_NW STORM_SPEED STORM_DIR
2020174N11231 2020 33 EP MM BORIS 2020-06-22 00:00:00 NR 10.8000 -129.100 PROVISIONAL 2373 2373 O_____________ nhc_working_bt EP032020 10.8000 -129.100 DB 25 -3 4 274
2020174N11231 2020 33 EP MM BORIS 2020-06-22 03:00:00 NR 10.8125 -129.277 PROVISIONAL 2389 2389 P_____________ EP032020 10.8125 -129.277 DB 25 -3 4 270
2020174N11231 2020 33 EP MM BORIS 2020-06-22 06:00:00 NR 10.8000 -129.500 PROVISIONAL 2405 2405 O_____________ nhc_working_bt EP032020 10.8000 -129.500 DB 25 1012 -3 1014 100 60 5 263
2020174N11231 2020 33 EP MM BORIS 2020-06-22 09:00:00 NR 10.7501 -129.780 PROVISIONAL 2429 2429 P_____________ EP032020 10.7501 -129.780 DB 20 1012 -3 5 258
2020174N11231 2020 33 EP MM BORIS 2020-06-22 12:00:00 NR 10.7000 -130.000 PROVISIONAL 2452 2452 O_____________ nhc_working_bt EP032020 10.7000 -130.000 DB 15 1012 -3 2 258
2020174N11231 2020 33 EP MM BORIS 2020-06-22 15:00:00 NR 10.7000 -130.022 PROVISIONAL 2452 2452 P_____________ EP032020 10.7000 -130.022 DB 20 1012 -3 0 0
2020174N11231 2020 33 EP MM BORIS 2020-06-22 18:00:00 NR 10.7000 -130.000 PROVISIONAL 2452 2452 O_____________ nhc_working_bt EP032020 10.7000 -130.000 DB 25 1012 -3 1 244
2020174N11231 2020 33 EP MM BORIS 2020-06-22 21:00:00 NR 10.6650 -130.093 PROVISIONAL 2460 2460 P_____________ EP032020 10.6650 -130.093 DB 25 1012 -3 2 243
2020174N11231 2020 33 EP MM BORIS 2020-06-23 00:00:00 DS 10.6000 -130.200 PROVISIONAL 2476 2476 O_____________ nhc_working_bt EP032020 10.6000 -130.200 LO 25 1012 -3 1014 100 60 2 226
2020174N11231 2020 33 EP MM BORIS 2020-06-23 03:00:00 DS 10.5075 -130.258 PROVISIONAL 2492 2492 P_____________ EP032020 10.5075 -130.258 LO 25 1011 -3 1013 100 45 2 207
2020174N11231 2020 33 EP MM BORIS 2020-06-23 06:00:00 DS 10.4000 -130.300 PROVISIONAL 2499 2499 O_____________ nhc_working_bt EP032020 10.4000 -130.300 LO 25 1010 -3 1013 100 30 2 202
2020174N11231 2020 33 EP MM BORIS 2020-06-23 09:00:00 DS 10.3000 -130.335 PROVISIONAL 2507 2507 P_____________ EP032020 10.3000 -130.335 LO 25 1009 -3 1012 100 30 2 207
2020174N11231 2020 33 EP MM BORIS 2020-06-23 12:00:00 DS 10.2000 -130.400 PROVISIONAL 2522 2522 O_____________ nhc_working_bt EP032020 10.2000 -130.400 LO 25 1009 -3 1012 100 30 3 220
2020174N11231 2020 33 EP MM BORIS 2020-06-23 15:00:00 DS 10.0850 -130.513 PROVISIONAL 2538 2538 P_____________ EP032020 10.0850 -130.513 LO 25 1008 -3 1011 120 80 4 236
2020174N11231 2020 33 EP MM BORIS 2020-06-23 18:00:00 DS 10.0000 -130.700 PROVISIONAL 2562 2562 O_____________ nhc_working_bt EP032020 10.0000 -130.700 LO 25 1007 -3 1010 140 130 5 258
2020174N11231 2020 33 EP MM BORIS 2020-06-23 21:00:00 DS 9.98502 -130.977 PROVISIONAL 2586 2586 P_____________ EP032020 9.98502 -130.977 LO 25 1007 -3 1010 140 130 6 270
2020174N11231 2020 33 EP MM BORIS 2020-06-24 00:00:00 DS 10.0000 -131.300 PROVISIONAL 2611 2611 O_____________ nhc_working_bt EP032020 10.0000 -131.300 LO 25 1007 -3 1010 140 130 6 271
2020174N11231 2020 33 EP MM BORIS 2020-06-24 03:00:00 DS 9.99245 -131.593 PROVISIONAL 2633 2633 P_____________ EP032020 9.99245 -131.593 LO 25 1007 -3 1010 140 90 6 270
2020174N11231 2020 33 EP MM BORIS 2020-06-24 06:00:00 DS 10.0000 -131.900 PROVISIONAL 2654 2649 O_____________ nhc_working_bt EP032020 10.0000 -131.900 LO 25 1007 -3 1010 140 50 6 273
2020174N11231 2020 33 EP MM BORIS 2020-06-24 09:00:00 DS 10.0274 -132.220 PROVISIONAL 2649 2605 P_____________ EP032020 10.0274 -132.220 LO 27 1007 -3 1010 140 50 7 278
2020174N11231 2020 33 EP MM BORIS 2020-06-24 12:00:00 TS 10.1000 -132.600 PROVISIONAL 2605 2556 O_____________ nhc_working_bt EP032020 10.1000 -132.600 TD 30 1007 -1 1010 140 50 40 9 286
2020174N11231 2020 33 EP MM BORIS 2020-06-24 15:00:00 TS 10.2751 -133.077 PROVISIONAL 2546 2502 P_____________ EP032020 10.2501 -133.092 TD 30 1007 -1 1010 140 45 10 291
2020174N11231 2020 33 EP MM BORIS 2020-06-24 18:00:00 TS 10.4500 -133.550 PROVISIONAL 2487 2448 O_____________ nhc_working_bt EP032020 10.4000 -133.600 TD 30 1007 -1 1010 140 40 40 9 286
2020174N11231 2020 33 EP MM BORIS 2020-06-24 21:00:00 TS 10.5395 -133.990 PROVISIONAL 2448 2404 P_____________ EP032020 10.4724 -134.023 TD 30 1007 -1 1009 140 35 8 278
2020174N11231 2020 33 EP MM BORIS 2020-06-25 00:00:00 TS 10.5636 -134.400 PROVISIONAL 2404 2380 O_____________ nhc_working_bt EP032020 10.5000 -134.400 TD 30 1007 -1 1009 140 30 40 8 269
2020174N11231 2020 33 EP MM BORIS 2020-06-25 03:00:00 TS 10.5257 -134.755 PROVISIONAL 2370 2341 P_____________ EP032020 10.4924 -134.750 TD 30 1007 -1 1009 130 30 7 265
2020174N11231 2020 33 EP MM BORIS 2020-06-25 06:00:00 TS 10.5000 -135.100 PROVISIONAL 2341 2297 O_____________ nhc_working_bt EP032020 10.5000 -135.100 TD 30 1007 -1 1010 120 30 40 7 274
2020174N11231 2020 33 EP MM BORIS 2020-06-25 09:00:00 TS 10.5725 -135.492 PROVISIONAL 2297 2253 P_____________ EP032020 10.5775 -135.493 TD 30 1007 -1 1010 120 30 8 284
2020174N11231 2020 33 EP MM BORIS 2020-06-25 12:00:00 TS 10.7000 -135.900 PROVISIONAL 2253 2209 O_____________ nhc_working_bt EP032020 10.7000 -135.900 TD 30 1007 -1 1010 120 30 40 8 289
2020174N11231 2020 33 EP MM BORIS 2020-06-25 15:00:00 TS 10.8424 -136.295 PROVISIONAL 2209 2160 P_____________ EP032020 10.8424 -136.300 TD 32 1006 -1 1010 120 30 8 291
2020174N11231 2020 33 EP MM BORIS 2020-06-25 18:00:00 TS 11.0000 -136.700 PROVISIONAL 2160 2116 O_____________ nhc_working_bt EP032020 11.0000 -136.700 TS 35 1005 0 40 40 40 1010 120 30 40 9 291
2020174N11231 2020 33 EP MM BORIS 2020-06-25 21:00:00 TS 11.1575 -137.146 PROVISIONAL 2111 2067 P_____________ EP032020 11.1575 -137.107 TS 35 1005 0 40 40 40 1009 110 30 9 289
2020174N11231 2020 33 EP MM BORIS 2020-06-26 00:00:00 TS 11.3000 -137.567 PROVISIONAL 2058 2024 O_____________ nhc_working_bt EP032020 11.3000 -137.500 TS 35 1005 0 40 40 40 1009 100 30 45 12 40 40 40 8 288
2020174N11231 2020 33 EP MM BORIS 2020-06-26 03:00:00 TS 11.3974 -137.916 PROVISIONAL 2024 1989 P_____________ EP032020 11.3925 -137.888 TS 32 1005 -1 40 40 40 1009 100 30 12 50 7 288
2020174N11231 2020 33 EP MM BORIS 2020-06-26 06:00:00 TS 11.5000 -138.200 PROVISIONAL 1989 1965 O_____________ nhc_working_bt EP032020 11.5000 -138.200 TD 30 1006 -1 40 40 40 1009 100 30 45 12 60 6 295
2020174N11231 2020 33 EP MM BORIS 2020-06-26 09:00:00 TS 11.6416 -138.449 PROVISIONAL 1965 1935 P_____________ EP032020 11.6849 -138.373 TD 30 1006 -1 1009 100 30 12 60 5 308
2020174N11231 2020 33 EP MM BORIS 2020-06-26 12:00:00 TS 11.8333 -138.633 PROVISIONAL 1935 1910 O_____________ nhc_working_bt EP032020 11.9000 -138.500 TD 30 1006 -1 1009 100 30 40 12 60 5 331
2020174N11231 2020 33 EP MM BORIS 2020-06-26 15:00:00 TS 12.1124 -138.713 PROVISIONAL 1910 1885 P_____________ EP032020 12.1225 -138.685 TD 30 1006 -1 1009 100 30 6 340
2020174N11231 2020 33 EP MM BORIS 2020-06-26 18:00:00 TS 12.3667 -138.833 PROVISIONAL 1885 1850 O_____________ nhc_working_bt EP032020 12.3000 -138.900 TD 30 1006 -1 1009 100 30 40 6 312
2020174N11231 2020 33 EP MM BORIS 2020-06-26 21:00:00 TS 12.5026 -139.156 PROVISIONAL 1841 1812 P_____________ EP032020 12.3875 -139.143 TD 30 1006 -1 1009 100 30 7 284
2020174N11231 2020 33 EP MM BORIS 2020-06-27 00:00:00 TS 12.5333 -139.533 PROVISIONAL 1812 1783 O_____________ nhc_working_bt EP032020 12.4000 -139.400 TD 30 1006 -1 1010 100 30 40 7 267
2020174N11231 2020 33 EP MM BORIS 2020-06-27 03:00:00 TS 12.4675 -139.847 PROVISIONAL 1783 1760 P_____________ EP032020 12.3575 -139.650 TD 30 1006 -1 1011 110 40 6 253
2020174N11231 2020 33 EP CP BORIS 2020-06-27 06:00:00 TS 12.3667 -140.100 PROVISIONAL 1760 1756 O_____________ nhc_working_bt EP032020 12.3000 -139.900 TD 30 1007 -1 1012 120 50 40 4 249
2020174N11231 2020 33 EP CP BORIS 2020-06-27 09:00:00 TS 12.3207 -140.247 PROVISIONAL 1756 1737 P_____________ EP032020 12.2925 -140.142 TD 30 1006 -1 1011 110 50 3 257
2020174N11231 2020 33 EP CP BORIS 2020-06-27 12:00:00 TS 12.3000 -140.400 PROVISIONAL 1737 1708 O_____________ nhc_working_bt EP032020 12.3000 -140.400 TD 30 1006 -1 1011 100 50 40 4 267
2020174N11231 2020 33 EP CP BORIS 2020-06-27 15:00:00 TS 12.3025 -140.670 PROVISIONAL 1708 1680 P_____________ EP032020 12.3075 -140.685 TD 30 1006 -1 1011 105 47 6 270
2020174N11231 2020 33 EP CP BORIS 2020-06-27 18:00:00 TS 12.3000 -141.000 PROVISIONAL 1680 1652 O_____________ nhc_working_bt EP032020 12.3000 -141.000 TD 30 1007 -1 1012 110 45 40 7 267
2020174N11231 2020 33 EP CP BORIS 2020-06-27 21:00:00 TS 12.2657 -141.337 PROVISIONAL 1652 1621 P_____________ EP032020 12.2725 -141.342 TD 27 1007 -1 1011 105 45 7 262
2020174N11231 2020 33 EP CP BORIS 2020-06-28 00:00:00 DS 12.2000 -141.700 PROVISIONAL 1621 1599 O_____________ nhc_working_bt EP032020 12.2000 -141.700 LO 25 1008 -3 1010 100 45 35 7 258
2020174N11231 2020 33 EP CP BORIS 2020-06-28 03:00:00 DS 12.1092 -142.069 PROVISIONAL 1590 1560 P_____________ EP032020 12.0724 -142.027 LO 25 1008 -3 1010 100 45 8 254
2020174N11231 2020 33 EP CP BORIS 2020-06-28 06:00:00 DS 11.9898 -142.475 PROVISIONAL 1560 1531 O_____________ nhc_working_bt EP032020 11.9000 -142.400 LO 25 1008 -3 1010 100 45 9 253
2020174N11231 2020 33 EP CP BORIS 2020-06-28 09:00:00 DS 11.8558 -142.932 PROVISIONAL 1531 1500 P_____________ EP032020 11.7150 -142.877 LO 25 1008 -3 1010 100 45 10 253
2020174N11231 2020 33 EP CP BORIS 2020-06-28 12:00:00 DS 11.6982 -143.423 PROVISIONAL 1500 1471 O_____________ nhc_working_bt EP032020 11.5000 -143.400 LO 25 1008 -3 1010 100 45 10 251
2020174N11231 2020 33 EP CP BORIS 2020-06-28 15:00:00 DS 11.5151 -143.915 PROVISIONAL 1471 1443 P_____________ EP032020 11.2349 -143.893 LO 25 1008 -3 1010 100 45 11 248
2020174N11231 2020 33 EP CP BORIS 2020-06-28 18:00:00 DS 11.2970 -144.423 PROVISIONAL 1443 1417 O_____________ nhc_working_bt EP032020 11.0000 -144.400 LO 25 1008 -3 1010 100 45 11 248
2020174N11231 2020 33 EP CP BORIS 2020-06-28 21:00:00 DS 11.0985 -144.953 PROVISIONAL 1409 1385 P_____________ EP032020 10.8774 -144.942 LO 25 1008 -3 1010 100 45 11 250
2020174N11231 2020 33 EP CP BORIS 2020-06-29 00:00:00 DS 10.9119 -145.499 PROVISIONAL 1385 1363 O_____________ nhc_working_bt EP032020 10.8000 -145.500 LO 25 1008 -3 1010 100 45 11 250
2020174N11231 2020 33 EP CP BORIS 2020-06-29 03:00:00 DS 10.7074 -146.042 PROVISIONAL 1363 1327 P_____________ EP032020 10.7074 -146.042 LO 25 1008 -3 1010 90 47 11 254
2020174N11231 2020 33 EP CP BORIS 2020-06-29 06:00:00 DS 10.6000 -146.600 PROVISIONAL 1327 1292 O_____________ nhc_working_bt EP032020 10.6000 -146.600 LO 25 1008 -3 1010 80 50 12 258
2020174N11231 2020 33 EP CP BORIS 2020-06-29 09:00:00 DS 10.4725 -147.215 PROVISIONAL 1292 1270 P_____________ EP032020 10.4725 -147.215 LO 25 1008 -3 1010 75 50 12 256
2020174N11231 2020 33 EP CP BORIS 2020-06-29 12:00:00 DS 10.3000 -147.800 PROVISIONAL 1270 1259 O_____________ nhc_working_bt EP032020 10.3000 -147.800 LO 25 1008 -3 1010 70 50 11 248
2020174N11231 2020 33 EP CP BORIS 2020-06-29 15:00:00 DS 10.0648 -148.265 PROVISIONAL 1256 1256 P_____________ EP032020 10.0648 -148.265 LO 25 1008 -3 1010 70 50 10 241
2020174N11231 2020 33 EP CP BORIS 2020-06-29 18:00:00 DS 9.80000 -148.700 PROVISIONAL 1260 1252 O_____________ nhc_working_bt EP032020 9.80000 -148.700 LO 25 1008 -3 1010 70 50 11 240
2020174N11231 2020 33 EP CP BORIS 2020-06-29 21:00:00 DS 9.54246 -149.192 PROVISIONAL 1262 1250 P_____________ EP032020 9.54246 -149.192 LO 25 1008 -3 1009 65 45 11 243
2020174N11231 2020 33 EP CP BORIS 2020-06-30 00:00:00 DS 9.30000 -149.700 PROVISIONAL 1254 1247 O_____________ nhc_working_bt EP032020 9.30000 -149.700 LO 25 1008 -3 1009 60 40 11 245
2020174N11231 2020 33 EP CP BORIS 2020-06-30 03:00:00 DS 9.08493 -150.200 PROVISIONAL 1247 1241 P_____________ EP032020 9.08493 -150.200 LO 25 1008 -3 1009 75 40 11 248
2020174N11231 2020 33 EP CP BORIS 2020-06-30 06:00:00 DS 8.90000 -150.700 PROVISIONAL 1242 1230 O_____________ nhc_working_bt EP032020 8.90000 -150.700 LO 25 1008 -3 1010 90 40 10 251
2020174N11231 2020 33 EP CP BORIS 2020-06-30 09:00:00 DS 8.74263 -151.200 PROVISIONAL 1240 1228 P_____________ EP032020 8.74263 -151.200 LO 25 1008 -3 1010 90 42 10 253
2020174N11231 2020 33 EP CP BORIS 2020-06-30 12:00:00 DS 8.60000 -151.700 PROVISIONAL 1231 O_____________ nhc_working_bt EP032020 8.60000 -151.700 LO 25 1009 -3 1010 90 45 10 254

About IBTrACS Database

This database is a web-friendly format of International Best Track Archive for Climate Stewardship (IBTrACS), a global best track data archive curated by NOAA dating back to 1842.

Updated: 2021-11-26